Time;durP1;ratioP1;P1;durP2;ratioP2;P2;SDS_P1;SDS_P2;PMS_P1;PMS_P2;Temp;Humidity;BMP_temperature;BMP_pressure;BME280_temperature;BME280_humidity;BME280_pressure;Samples;Min_cycle;Max_cycle;Signal;HPM_P1;HPM_P2
2020/12/19 00:00:41;;;;;;;12.37;9.73;;;7.70;99.90;;;;;;5008659;28;20635;-81
2020/12/19 00:03:08;;;;;;;14.50;9.80;;;7.70;99.90;;;;;;5007855;28;20231;-80
2020/12/19 00:05:35;;;;;;;11.27;9.43;;;7.70;99.90;;;;;;5009604;28;20207;-78
2020/12/19 00:08:01;;;;;;;12.63;9.73;;;7.70;99.90;;;;;;5008454;28;20657;-77
2020/12/19 00:10:27;;;;;;;12.47;9.67;;;7.70;99.90;;;;;;5007285;28;20996;-88
2020/12/19 00:12:59;;;;;;;10.27;8.70;;;7.70;99.90;;;;;;5008202;28;20191;-88
2020/12/19 00:15:26;;;;;;;12.67;9.00;;;7.60;99.90;;;;;;5008792;28;20866;-88
2020/12/19 00:17:53;;;;;;;14.17;10.83;;;7.60;99.90;;;;;;5007946;28;20191;-91
2020/12/19 00:20:20;;;;;;;15.67;11.57;;;7.60;99.90;;;;;;5009162;28;20792;-91
2020/12/19 00:22:46;;;;;;;14.77;10.90;;;7.60;99.90;;;;;;5028443;28;20715;-82
2020/12/19 00:25:13;;;;;;;13.67;11.17;;;7.60;99.90;;;;;;5027116;28;20191;-86
2020/12/19 00:27:39;;;;;;;16.07;11.80;;;7.60;99.90;;;;;;5028489;28;20234;-88
2020/12/19 00:30:06;;;;;;;15.70;10.97;;;7.60;99.90;;;;;;5029024;28;20205;-88
2020/12/19 00:32:33;;;;;;;13.07;10.50;;;7.60;99.90;;;;;;5027386;28;20225;-89
2020/12/19 00:34:59;;;;;;;14.07;11.30;;;7.60;99.90;;;;;;5027521;28;20207;-81
2020/12/19 00:37:26;;;;;;;17.60;10.80;;;7.50;99.90;;;;;;5028453;28;20199;-88
2020/12/19 00:39:53;;;;;;;13.87;10.83;;;7.50;99.90;;;;;;5027947;28;20231;-80
2020/12/19 00:42:19;;;;;;;14.87;11.17;;;7.50;99.90;;;;;;5026460;28;21044;-79
2020/12/19 00:44:45;;;;;;;14.30;11.53;;;7.50;99.90;;;;;;5026310;28;20202;-78
2020/12/19 00:47:12;;;;;;;16.80;11.53;;;7.50;99.90;;;;;;5026974;28;20194;-91
2020/12/19 00:49:38;;;;;;;16.77;12.70;;;7.50;99.90;;;;;;5027543;28;20256;-82
2020/12/19 00:52:04;;;;;;;17.83;12.97;;;7.50;99.90;;;;;;5027730;28;20230;-81
2020/12/19 00:54:31;;;;;;;18.17;12.07;;;7.40;99.90;;;;;;5027586;28;20201;-87
2020/12/19 00:56:58;;;;;;;17.77;12.67;;;7.50;99.90;;;;;;5026412;28;20583;-85
2020/12/19 00:59:24;;;;;;;18.10;12.17;;;7.40;99.90;;;;;;5028566;28;20199;-91
2020/12/19 01:01:50;;;;;;;17.40;12.73;;;7.40;99.90;;;;;;5028883;28;20217;-82
2020/12/19 01:04:16;;;;;;;18.10;13.40;;;7.40;99.90;;;;;;5028751;28;20218;-87
2020/12/19 01:06:43;;;;;;;16.87;12.10;;;7.40;99.90;;;;;;5030624;28;20202;-89
2020/12/19 01:09:09;;;;;;;18.17;13.57;;;7.40;99.90;;;;;;5030718;28;20195;-79
2020/12/19 01:11:37;;;;;;;17.00;12.23;;;7.40;99.90;;;;;;5028042;28;20284;-79
2020/12/19 01:14:05;;;;;;;17.43;13.53;;;7.40;99.90;;;;;;5029166;28;20203;-77
2020/12/19 01:16:31;;;;;;;18.83;13.43;;;7.40;99.90;;;;;;5030262;28;20617;-91
2020/12/19 01:19:04;;;;;;;17.30;13.90;;;7.30;99.90;;;;;;5028728;28;20509;-78
2020/12/19 01:21:30;;;;;;;18.37;13.80;;;7.30;99.90;;;;;;5016073;28;20251;-78
2020/12/19 01:23:57;;;;;;;16.03;13.03;;;7.30;99.90;;;;;;5009862;28;20801;-81
2020/12/19 01:26:24;;;;;;;19.10;13.03;;;7.30;99.90;;;;;;5009118;28;20207;-89
2020/12/19 01:28:51;;;;;;;17.90;13.43;;;7.30;99.90;;;;;;5008926;28;20218;-81
2020/12/19 01:31:20;;;;;;;19.03;13.47;;;7.30;99.90;;;;;;5008444;28;20207;-81
2020/12/19 01:33:46;;;;;;;18.50;14.00;;;7.30;99.90;;;;;;5010294;28;20203;-78
2020/12/19 01:36:14;;;;;;;17.80;12.73;;;7.30;99.90;;;;;;5008489;28;20204;-85
2020/12/19 01:38:41;;;;;;;20.53;14.53;;;7.30;99.90;;;;;;5008890;28;20218;-87
2020/12/19 01:41:08;;;;;;;17.97;13.77;;;7.30;99.90;;;;;;5009597;28;20242;-90
2020/12/19 01:43:46;;;;;;;19.33;14.10;;;7.20;99.90;;;;;;5008674;28;20199;-84
2020/12/19 01:46:25;;;;;;;19.53;14.83;;;7.30;99.90;;;;;;5007817;28;20207;-86
2020/12/19 01:48:52;;;;;;;21.33;15.27;;;7.20;99.90;;;;;;5009484;28;20210;-87
2020/12/19 01:51:19;;;;;;;22.27;15.23;;;7.20;99.90;;;;;;5008190;28;20216;-87
2020/12/19 01:53:45;;;;;;;22.73;15.40;;;7.20;99.90;;;;;;5007961;28;20257;-82
2020/12/19 01:56:11;;;;;;;20.23;14.57;;;7.10;99.90;;;;;;5007815;28;20206;-86
2020/12/19 01:58:39;;;;;;;21.03;14.90;;;7.20;99.90;;;;;;5009457;28;20207;-79
2020/12/19 02:01:09;;;;;;;23.20;14.47;;;7.10;99.90;;;;;;5008631;28;20281;-79
2020/12/19 02:03:36;;;;;;;19.87;15.50;;;7.10;99.90;;;;;;5007877;28;20226;-77
2020/12/19 02:06:05;;;;;;;22.37;15.60;;;7.10;99.90;;;;;;5008578;28;20207;-91
2020/12/19 02:08:31;;;;;;;20.27;14.67;;;7.10;99.90;;;;;;5008482;28;20204;-86
2020/12/19 02:10:57;;;;;;;23.73;15.33;;;7.10;99.90;;;;;;5007120;28;20898;-79
2020/12/19 02:13:23;;;;;;;22.20;15.00;;;7.00;99.90;;;;;;5007113;28;20662;-78
2020/12/19 02:15:50;;;;;;;24.60;15.27;;;7.00;99.90;;;;;;5008168;28;20942;-84
2020/12/19 02:18:16;;;;;;;19.77;14.70;;;7.10;99.90;;;;;;5008668;28;20188;-92
2020/12/19 02:20:43;;;;;;;20.77;15.57;;;7.10;99.90;;;;;;5007803;28;20227;-77
2020/12/19 02:23:09;;;;;;;20.97;15.13;;;7.00;99.90;;;;;;5007690;28;20591;-77
2020/12/19 02:25:38;;;;;;;22.57;16.17;;;7.10;99.90;;;;;;5007848;28;20199;-78
2020/12/19 02:28:06;;;;;;;20.70;15.53;;;7.00;99.90;;;;;;5008843;28;20269;-90
2020/12/19 02:30:32;;;;;;;21.83;15.40;;;7.10;99.90;;;;;;5008480;28;20203;-85
2020/12/19 02:32:59;;;;;;;21.07;16.03;;;7.00;99.90;;;;;;5007277;28;20211;-86
2020/12/19 02:35:26;;;;;;;19.47;14.70;;;7.00;99.90;;;;;;5008174;28;20294;-79
2020/12/19 02:37:53;;;;;;;23.23;15.57;;;7.10;99.90;;;;;;5007607;28;20239;-85
2020/12/19 02:40:19;;;;;;;20.10;14.93;;;7.00;99.90;;;;;;5007311;28;20585;-86
2020/12/19 02:42:46;;;;;;;20.47;14.63;;;7.00;99.90;;;;;;5008193;28;20203;-90
2020/12/19 02:45:13;;;;;;;20.10;14.73;;;7.00;99.90;;;;;;5007203;28;20260;-89
2020/12/19 02:48:29;;;;;;;20.93;15.03;;;7.00;99.90;;;;;;5008297;28;20273;-83
2020/12/19 02:50:55;;;;;;;20.90;15.37;;;7.00;99.90;;;;;;5008053;28;20245;-81
2020/12/19 02:53:22;;;;;;;20.73;14.87;;;6.90;99.90;;;;;;5006754;28;20199;-86
2020/12/19 02:55:48;;;;;;;21.50;15.43;;;6.90;99.90;;;;;;5008473;28;20207;-90
2020/12/19 03:01:00;;;;;;;20.27;15.10;;;6.90;99.90;;;;;;5006460;28;20241;-83
2020/12/19 03:03:27;;;;;;;19.20;14.13;;;6.90;99.90;;;;;;5007350;28;20195;-83
2020/12/19 03:05:53;;;;;;;21.23;15.30;;;6.90;99.90;;;;;;5008062;28;20203;-81
2020/12/19 03:08:20;;;;;;;21.70;14.77;;;6.90;99.90;;;;;;5006790;28;20206;-77
2020/12/19 03:10:46;;;;;;;19.27;14.20;;;6.80;99.90;;;;;;5007371;28;20530;-78
2020/12/19 03:13:12;;;;;;;20.67;13.30;;;6.90;99.90;;;;;;5006791;28;20204;-87
2020/12/19 03:15:40;;;;;;;23.87;14.90;;;6.80;99.90;;;;;;5008270;28;20208;-88
2020/12/19 03:18:06;;;;;;;20.63;15.07;;;6.90;99.90;;;;;;5005045;28;20272;-78
2020/12/19 03:20:32;;;;;;;20.03;14.73;;;6.90;99.90;;;;;;5008729;28;20461;-80
2020/12/19 03:22:59;;;;;;;19.80;14.37;;;6.80;99.90;;;;;;5029301;28;20211;-88
2020/12/19 03:25:26;;;;;;;19.40;14.10;;;6.80;99.90;;;;;;5025404;28;20202;-88
2020/12/19 03:27:53;;;;;;;18.57;14.03;;;6.80;99.90;;;;;;5025130;28;20198;-89
2020/12/19 03:30:19;;;;;;;21.90;15.17;;;6.70;99.90;;;;;;5026136;28;20203;-88
2020/12/19 03:32:46;;;;;;;22.80;16.27;;;6.80;99.90;;;;;;5025622;28;20237;-88
2020/12/19 03:35:13;;;;;;;21.33;15.00;;;6.70;99.90;;;;;;5024317;28;20218;-86
2020/12/19 03:37:39;;;;;;;22.60;14.73;;;6.70;99.90;;;;;;5026222;28;20202;-89
2020/12/19 03:40:05;;;;;;;26.33;15.27;;;6.70;99.90;;;;;;5027418;28;20245;-92
2020/12/19 03:42:32;;;;;;;23.97;16.23;;;6.70;99.90;;;;;;5030048;28;20500;-90
2020/12/19 03:44:58;;;;;;;22.30;15.33;;;6.60;99.90;;;;;;5030589;28;20218;-90
2020/12/19 03:47:24;;;;;;;21.57;15.07;;;6.60;99.90;;;;;;5031164;28;20242;-90
2020/12/19 03:49:51;;;;;;;22.97;16.97;;;6.60;99.90;;;;;;5029732;28;20195;-89
2020/12/19 03:52:17;;;;;;;21.83;15.90;;;6.60;99.90;;;;;;5028878;28;20206;-88
2020/12/19 03:54:44;;;;;;;21.70;15.70;;;6.60;99.90;;;;;;5031151;28;20202;-88
2020/12/19 03:57:10;;;;;;;23.13;15.97;;;6.60;99.90;;;;;;5028567;28;20229;-90
2020/12/19 03:59:36;;;;;;;21.90;16.03;;;6.60;99.90;;;;;;5030327;28;20542;-89
2020/12/19 04:02:03;;;;;;;20.97;15.90;;;6.50;99.90;;;;;;5029559;28;20202;-90
2020/12/19 04:04:29;;;;;;;23.47;15.87;;;6.50;99.90;;;;;;5029129;28;20194;-89
2020/12/19 04:06:56;;;;;;;21.20;15.00;;;6.50;99.90;;;;;;5029555;28;20841;-89
2020/12/19 04:09:23;;;;;;;24.17;16.57;;;6.50;99.90;;;;;;5029492;28;20210;-88
2020/12/19 04:11:49;;;;;;;22.00;15.10;;;6.50;99.90;;;;;;5027597;28;20238;-80
2020/12/19 04:14:16;;;;;;;22.57;15.17;;;6.50;99.90;;;;;;5026257;28;20198;-86
2020/12/19 04:16:42;;;;;;;24.80;15.40;;;6.50;99.90;;;;;;5026989;28;20611;-82
2020/12/19 04:19:09;;;;;;;22.53;15.70;;;6.40;99.90;;;;;;5027462;28;20199;-85
2020/12/19 04:21:35;;;;;;;24.60;16.37;;;6.40;99.90;;;;;;5014003;28;20346;-78
2020/12/19 04:24:02;;;;;;;22.60;16.03;;;6.40;99.90;;;;;;5006504;28;20199;-86
2020/12/19 04:26:28;;;;;;;22.13;15.50;;;6.40;99.90;;;;;;5008771;28;20203;-80
2020/12/19 04:28:55;;;;;;;23.10;16.73;;;6.50;99.90;;;;;;5005961;28;20258;-78
2020/12/19 04:31:21;;;;;;;24.80;16.10;;;6.50;99.90;;;;;;5003353;28;20199;-80
2020/12/19 04:33:47;;;;;;;21.53;15.53;;;6.50;99.90;;;;;;5008320;28;20226;-84
2020/12/19 04:36:13;;;;;;;22.23;15.13;;;6.50;99.90;;;;;;5009670;28;20203;-77
2020/12/19 04:38:40;;;;;;;24.17;15.53;;;6.60;99.90;;;;;;5009662;28;20238;-85
2020/12/19 04:41:10;;;;;;;21.87;15.43;;;6.50;99.90;;;;;;5010528;28;20270;-77
2020/12/19 04:43:36;;;;;;;21.97;15.53;;;6.50;99.90;;;;;;5010110;28;20211;-79
2020/12/19 04:46:03;;;;;;;21.13;15.80;;;6.60;99.90;;;;;;5010604;28;20195;-78
2020/12/19 04:48:30;;;;;;;23.93;16.27;;;6.50;99.90;;;;;;5010475;28;20207;-91
2020/12/19 04:50:57;;;;;;;21.37;14.77;;;6.50;99.90;;;;;;5011172;28;20203;-83
2020/12/19 04:53:24;;;;;;;21.63;14.63;;;6.50;99.90;;;;;;5010129;28;20206;-78
2020/12/19 04:55:50;;;;;;;21.43;15.27;;;6.60;99.90;;;;;;5009022;28;20207;-78
2020/12/19 04:58:19;;;;;;;22.50;15.83;;;6.60;99.90;;;;;;5009196;28;20210;-78
2020/12/19 05:00:46;;;;;;;23.37;15.87;;;6.60;99.90;;;;;;5009964;28;20225;-90
2020/12/19 05:03:13;;;;;;;22.30;15.47;;;6.60;99.90;;;;;;5009308;28;20820;-79
2020/12/19 05:05:42;;;;;;;20.63;15.13;;;6.70;99.90;;;;;;5008874;28;20203;-79
2020/12/19 05:08:09;;;;;;;21.53;14.97;;;6.60;99.90;;;;;;5009789;28;20876;-80
2020/12/19 05:10:36;;;;;;;21.67;14.93;;;6.70;99.90;;;;;;5010817;28;20227;-83
2020/12/19 05:13:02;;;;;;;19.57;14.47;;;6.70;99.90;;;;;;5008913;28;20214;-79
2020/12/19 05:15:29;;;;;;;23.93;15.70;;;6.70;99.90;;;;;;5009252;28;20199;-78
2020/12/19 05:17:57;;;;;;;24.23;15.07;;;6.70;99.90;;;;;;5010683;28;20196;-79
2020/12/19 05:20:25;;;;;;;23.33;14.93;;;6.80;99.90;;;;;;5009714;28;20235;-79
2020/12/19 05:22:52;;;;;;;19.03;14.30;;;6.80;99.90;;;;;;5013776;28;20210;-90
2020/12/19 05:25:20;;;;;;;21.60;15.93;;;6.80;99.90;;;;;;5014029;28;20504;-80
2020/12/19 05:27:49;;;;;;;22.60;14.70;;;6.90;99.90;;;;;;5009939;28;20317;-85
2020/12/19 05:30:17;;;;;;;22.57;15.03;;;6.90;99.90;;;;;;5009038;28;20199;-86
2020/12/19 05:32:46;;;;;;;18.67;13.77;;;6.90;99.90;;;;;;5009382;28;20254;-80
2020/12/19 05:35:14;;;;;;;19.97;13.90;;;6.90;99.90;;;;;;5009846;28;20336;-80
2020/12/19 05:37:41;;;;;;;23.67;15.50;;;6.90;99.90;;;;;;5009096;28;20979;-78
2020/12/19 05:40:09;;;;;;;18.13;14.07;;;7.00;99.90;;;;;;5008760;28;20227;-79
2020/12/19 05:42:37;;;;;;;22.27;14.87;;;7.00;99.90;;;;;;5010068;28;20188;-80
2020/12/19 05:45:13;;;;;;;21.33;13.97;;;7.00;99.90;;;;;;5004983;28;20195;-79
2020/12/19 05:47:39;;;;;;;21.93;14.60;;;7.00;99.90;;;;;;5005127;28;20191;-78
2020/12/19 05:50:06;;;;;;;19.70;14.60;;;7.00;99.90;;;;;;5004702;28;20211;-82
2020/12/19 05:52:33;;;;;;;20.43;14.77;;;7.00;99.90;;;;;;5006713;28;20223;-77
2020/12/19 05:55:03;;;;;;;21.80;15.67;;;7.00;99.90;;;;;;5004967;28;20207;-77
2020/12/19 05:57:32;;;;;;;21.07;14.97;;;7.10;99.90;;;;;;5005754;28;20260;-77
2020/12/19 05:59:58;;;;;;;19.23;14.83;;;7.10;99.90;;;;;;5005436;28;20242;-88
2020/12/19 06:02:24;;;;;;;20.53;14.50;;;7.10;99.90;;;;;;5005827;28;20203;-78
2020/12/19 06:04:52;;;;;;;18.63;13.57;;;7.00;99.90;;;;;;5005244;28;20203;-87
2020/12/19 06:07:20;;;;;;;20.67;14.70;;;7.00;99.90;;;;;;5005402;28;20614;-77
2020/12/19 06:09:46;;;;;;;20.80;13.27;;;7.10;99.90;;;;;;5006355;28;20191;-78
2020/12/19 06:12:18;;;;;;;18.93;14.23;;;7.10;99.90;;;;;;5005379;28;20231;-76
2020/12/19 06:14:52;;;;;;;18.30;12.30;;;7.10;99.90;;;;;;5005706;28;20231;-76
2020/12/19 06:17:32;;;;;;;21.90;14.63;;;7.10;99.90;;;;;;5004483;28;20192;-76
2020/12/19 06:20:03;;;;;;;21.53;13.33;;;7.10;99.90;;;;;;5004518;28;20594;-78
2020/12/19 06:22:31;;;;;;;17.97;13.07;;;7.10;99.90;;;;;;5005509;28;20195;-77
2020/12/19 06:24:57;;;;;;;17.63;13.17;;;7.10;99.90;;;;;;5004201;28;20195;-78
2020/12/19 06:27:40;;;;;;;18.37;12.63;;;7.10;99.90;;;;;;5004417;28;20256;-77
2020/12/19 06:30:08;;;;;;;17.43;12.63;;;7.20;99.90;;;;;;5003579;28;20781;-77
2020/12/19 06:32:35;;;;;;;17.97;12.40;;;7.20;99.90;;;;;;5004799;28;20262;-77
2020/12/19 06:35:04;;;;;;;16.67;12.03;;;7.20;99.90;;;;;;5004672;28;20196;-77
2020/12/19 06:37:33;;;;;;;20.20;13.10;;;7.20;99.90;;;;;;5004329;28;20215;-76
2020/12/19 06:40:10;;;;;;;17.70;12.07;;;7.20;99.90;;;;;;5004600;28;20266;-77
2020/12/19 06:42:36;;;;;;;16.00;11.53;;;7.30;99.90;;;;;;5005991;28;20203;-77
2020/12/19 06:45:21;;;;;;;17.17;13.07;;;7.30;99.90;;;;;;5003952;28;20203;-77
2020/12/19 06:47:48;;;;;;;15.80;12.27;;;7.30;99.90;;;;;;5003618;28;20219;-77
2020/12/19 06:50:14;;;;;;;17.20;12.97;;;7.40;99.90;;;;;;5003984;28;20261;-79
2020/12/19 06:52:52;;;;;;;15.93;12.60;;;7.40;99.90;;;;;;5003784;28;20245;-83
2020/12/19 06:55:19;;;;;;;20.30;13.20;;;7.40;99.90;;;;;;5003212;28;20226;-79
2020/12/19 06:57:50;;;;;;;18.53;13.33;;;7.40;99.90;;;;;;5002717;28;20208;-78
2020/12/19 07:00:18;;;;;;;17.90;12.70;;;7.40;99.90;;;;;;5002749;28;20247;-78
2020/12/19 07:02:52;;;;;;;16.80;12.57;;;7.40;99.90;;;;;;5002741;28;20210;-78
2020/12/19 07:05:21;;;;;;;15.37;11.47;;;7.40;99.90;;;;;;5002653;28;20233;-77
2020/12/19 07:07:48;;;;;;;16.73;12.00;;;7.40;99.90;;;;;;5004427;28;20203;-78
2020/12/19 07:10:15;;;;;;;20.33;12.60;;;7.40;99.90;;;;;;5004172;28;20242;-78
2020/12/19 07:12:42;;;;;;;18.77;13.13;;;7.40;99.90;;;;;;5004002;28;20232;-79
2020/12/19 07:15:10;;;;;;;18.17;12.00;;;7.40;99.90;;;;;;5003469;28;20203;-78
2020/12/19 07:17:47;;;;;;;19.80;12.67;;;7.40;99.90;;;;;;5004150;28;20253;-76
2020/12/19 07:20:13;;;;;;;18.43;12.83;;;7.40;99.90;;;;;;5004235;28;20206;-77
2020/12/19 07:22:40;;;;;;;20.43;13.50;;;7.40;99.90;;;;;;5024268;28;20694;-80
2020/12/19 07:25:07;;;;;;;19.23;13.50;;;7.40;99.90;;;;;;5031289;28;20202;-83
2020/12/19 07:27:33;;;;;;;19.17;13.47;;;7.40;99.90;;;;;;5023410;28;20209;-80
2020/12/19 07:30:00;;;;;;;16.50;12.60;;;7.50;99.90;;;;;;5022822;28;20228;-79
2020/12/19 07:32:28;;;;;;;18.10;13.40;;;7.50;99.90;;;;;;5023690;28;20198;-76
2020/12/19 07:34:55;;;;;;;17.87;13.20;;;7.50;99.90;;;;;;5027903;28;20202;-82
2020/12/19 07:37:22;;;;;;;19.77;13.23;;;7.50;99.90;;;;;;5027186;28;20202;-83
2020/12/19 07:39:49;;;;;;;20.30;13.73;;;7.50;99.90;;;;;;5027100;28;20228;-79
2020/12/19 07:42:16;;;;;;;17.73;13.27;;;7.50;99.90;;;;;;5027485;28;20226;-80
2020/12/19 07:44:44;;;;;;;18.27;13.83;;;7.50;99.90;;;;;;5027922;28;20203;-89
2020/12/19 07:47:12;;;;;;;20.63;14.43;;;7.50;99.90;;;;;;5027909;28;20211;-86
2020/12/19 07:49:44;;;;;;;17.70;13.13;;;7.50;99.90;;;;;;5028260;28;20514;-80
2020/12/19 07:52:19;;;;;;;17.53;12.57;;;7.50;99.90;;;;;;5028752;28;20576;-81
2020/12/19 07:54:57;;;;;;;18.90;13.90;;;7.50;99.90;;;;;;5027718;28;20201;-82
2020/12/19 07:57:26;;;;;;;21.40;13.53;;;7.50;99.90;;;;;;5027247;28;20206;-82
2020/12/19 07:59:53;;;;;;;19.90;13.97;;;7.50;99.90;;;;;;5023724;28;20264;-78
2020/12/19 08:02:20;;;;;;;19.43;14.23;;;7.50;99.90;;;;;;5025704;28;20300;-88
2020/12/19 08:04:55;;;;;;;20.00;13.80;;;7.50;99.90;;;;;;5030213;28;20207;-87
2020/12/19 08:07:23;;;;;;;21.10;13.20;;;7.50;99.90;;;;;;5029199;28;20198;-87
2020/12/19 08:09:56;;;;;;;22.17;13.63;;;7.60;99.90;;;;;;5030519;28;20199;-91
2020/12/19 08:12:23;;;;;;;20.10;14.63;;;7.60;99.90;;;;;;5029703;28;20665;-90
2020/12/19 08:14:52;;;;;;;22.77;14.67;;;7.70;99.90;;;;;;5030186;28;20206;-90
2020/12/19 08:17:18;;;;;;;20.60;14.93;;;7.70;99.90;;;;;;5029355;28;20205;-85
2020/12/19 08:33:49;;;;;;;20.53;14.90;;;7.90;99.90;;;;;;4876197;28;20238;-87
2020/12/19 08:36:16;;;;;;;19.27;13.90;;;7.90;99.90;;;;;;5021622;28;20210;-87
2020/12/19 08:38:42;;;;;;;22.10;14.27;;;8.00;99.90;;;;;;5029080;28;20206;-89
2020/12/19 08:41:18;;;;;;;22.13;14.30;;;8.00;99.90;;;;;;5027492;28;20238;-76
2020/12/19 08:43:45;;;;;;;21.90;14.93;;;8.00;99.90;;;;;;5028608;28;20700;-83
2020/12/19 08:46:13;;;;;;;20.73;14.40;;;8.10;99.90;;;;;;5029014;28;20213;-91
2020/12/19 08:48:40;;;;;;;21.23;14.07;;;8.10;99.90;;;;;;5029668;28;20202;-87
2020/12/19 08:51:11;;;;;;;22.80;13.93;;;8.20;99.90;;;;;;5029074;28;20199;-88
2020/12/19 08:53:38;;;;;;;21.93;15.40;;;8.30;99.90;;;;;;5028261;28;20258;-86
2020/12/19 08:56:14;;;;;;;20.27;14.40;;;8.30;99.90;;;;;;5028715;28;20873;-86
2020/12/19 08:58:42;;;;;;;21.40;13.80;;;8.40;99.90;;;;;;5029152;28;20202;-91
2020/12/19 09:01:17;;;;;;;20.30;14.00;;;8.50;99.90;;;;;;5027226;28;20233;-84
2020/12/19 09:03:44;;;;;;;20.30;14.00;;;8.50;99.90;;;;;;5028995;28;20221;-91
2020/12/19 09:06:12;;;;;;;19.63;15.13;;;8.60;99.90;;;;;;5029013;28;20202;-86
2020/12/19 09:08:43;;;;;;;19.23;14.07;;;8.60;99.90;;;;;;5029353;28;20212;-91
2020/12/19 09:11:21;;;;;;;19.90;13.77;;;8.70;99.90;;;;;;5028362;28;20245;-89
2020/12/19 09:13:47;;;;;;;16.70;12.53;;;8.70;99.90;;;;;;5028999;28;20225;-84
2020/12/19 09:16:13;;;;;;;20.47;14.50;;;8.80;99.90;;;;;;5027551;28;20213;-87
2020/12/19 09:18:40;;;;;;;20.77;13.93;;;8.80;99.90;;;;;;5027546;28;20202;-90
2020/12/19 09:21:08;;;;;;;17.93;12.83;;;8.80;99.90;;;;;;5032034;28;20680;-90
2020/12/19 09:23:37;;;;;;;18.63;12.53;;;8.80;99.90;;;;;;5031917;28;20202;-91
2020/12/19 09:26:05;;;;;;;20.03;14.27;;;8.90;99.90;;;;;;5030857;28;20263;-92
2020/12/19 09:28:31;;;;;;;18.03;12.87;;;8.90;99.90;;;;;;5032768;28;20206;-86
2020/12/19 09:30:59;;;;;;;18.37;13.00;;;8.90;99.90;;;;;;5032203;28;20205;-89
2020/12/19 09:33:25;;;;;;;18.40;13.20;;;8.90;99.90;;;;;;5031414;28;20213;-93
2020/12/19 09:35:53;;;;;;;18.77;13.33;;;8.90;99.90;;;;;;5031492;28;20496;-84
2020/12/19 09:38:19;;;;;;;19.03;13.00;;;8.90;99.90;;;;;;5032359;28;20203;-87
2020/12/19 09:40:47;;;;;;;19.73;12.63;;;9.00;99.90;;;;;;5032377;28;20222;-91
2020/12/19 09:43:13;;;;;;;19.93;12.43;;;9.00;99.90;;;;;;5032202;28;20203;-78
2020/12/19 09:45:40;;;;;;;20.50;13.20;;;9.00;99.90;;;;;;5032698;28;20186;-87
2020/12/19 09:48:07;;;;;;;16.30;11.50;;;9.00;99.90;;;;;;5031689;28;20195;-82
2020/12/19 09:50:34;;;;;;;17.93;12.87;;;9.00;99.90;;;;;;5032220;28;20209;-79
2020/12/19 09:53:00;;;;;;;17.10;12.37;;;9.00;99.90;;;;;;5031843;28;20190;-86
2020/12/19 09:55:28;;;;;;;17.90;12.87;;;9.00;99.90;;;;;;5031543;28;20202;-96
2020/12/19 09:57:55;;;;;;;17.50;12.67;;;9.00;99.90;;;;;;5031272;28;20229;-94
2020/12/19 10:00:24;;;;;;;15.23;12.13;;;9.10;99.90;;;;;;5029536;28;20209;-94
2020/12/19 10:02:53;;;;;;;17.13;12.33;;;9.10;99.90;;;;;;5030118;28;20711;-96
2020/12/19 10:05:20;;;;;;;17.20;12.83;;;9.10;99.90;;;;;;5031641;28;20214;-93
2020/12/19 10:07:46;;;;;;;18.23;11.80;;;9.20;99.90;;;;;;5030868;28;20202;-94
2020/12/19 10:10:12;;;;;;;18.37;12.33;;;9.20;99.90;;;;;;5031250;28;20202;-89
2020/12/19 10:12:39;;;;;;;16.53;11.83;;;9.20;99.90;;;;;;5029235;28;20245;-88
2020/12/19 10:15:08;;;;;;;16.10;12.30;;;9.20;99.90;;;;;;5027081;28;20203;-94
2020/12/19 10:17:35;;;;;;;16.67;12.23;;;9.30;99.90;;;;;;5028378;28;20546;-93
2020/12/19 10:20:01;;;;;;;15.73;12.47;;;9.30;99.90;;;;;;5029217;28;20210;-81
2020/12/19 10:22:28;;;;;;;17.90;12.63;;;9.30;99.90;;;;;;5028413;28;20227;-82
2020/12/19 10:24:54;;;;;;;17.17;12.03;;;9.30;99.90;;;;;;5029649;28;20897;-82
2020/12/19 10:27:20;;;;;;;17.30;11.70;;;9.40;99.90;;;;;;5030184;28;20506;-94
2020/12/19 10:29:46;;;;;;;17.10;13.07;;;9.40;99.90;;;;;;5029629;28;20206;-88
2020/12/19 10:32:13;;;;;;;19.63;12.17;;;9.40;99.90;;;;;;5028963;28;20206;-82
2020/12/19 10:34:40;;;;;;;16.30;11.63;;;9.40;99.90;;;;;;5030021;28;20222;-82
2020/12/19 10:37:07;;;;;;;16.93;12.40;;;9.50;99.90;;;;;;5028522;28;20199;-84
2020/12/19 10:39:33;;;;;;;16.40;11.53;;;9.50;99.90;;;;;;5011098;28;20678;-80
2020/12/19 10:41:59;;;;;;;18.47;11.20;;;9.50;99.90;;;;;;5010115;28;20234;-85
2020/12/19 10:44:26;;;;;;;13.67;10.93;;;9.60;99.90;;;;;;5011656;28;20246;-87
2020/12/19 10:46:52;;;;;;;16.80;10.97;;;9.60;99.90;;;;;;5010906;28;20559;-84
2020/12/19 10:49:20;;;;;;;14.83;11.10;;;9.60;99.90;;;;;;5009852;28;20262;-85
2020/12/19 10:51:47;;;;;;;15.30;11.00;;;9.70;99.90;;;;;;5009888;28;20278;-88
2020/12/19 10:54:13;;;;;;;15.77;11.57;;;9.80;99.90;;;;;;5011308;28;20593;-86
2020/12/19 10:56:40;;;;;;;15.80;11.50;;;9.90;99.90;;;;;;5013491;28;20596;-89
2020/12/19 10:59:06;;;;;;;16.17;11.67;;;9.90;99.90;;;;;;5011190;28;20203;-91
2020/12/19 11:01:32;;;;;;;12.63;10.17;;;9.90;99.90;;;;;;5011660;28;20237;-90
2020/12/19 11:03:59;;;;;;;15.00;11.20;;;10.00;99.90;;;;;;5011021;28;20211;-91
2020/12/19 11:06:27;;;;;;;13.60;10.27;;;10.00;99.90;;;;;;5008967;28;20206;-86
2020/12/19 11:08:54;;;;;;;13.00;10.37;;;10.00;99.90;;;;;;5010518;28;20204;-85
2020/12/19 11:11:22;;;;;;;13.63;10.53;;;10.10;99.90;;;;;;5009280;28;20555;-92
2020/12/19 11:13:49;;;;;;;14.33;10.00;;;10.10;99.90;;;;;;5010212;28;20242;-81
2020/12/19 11:16:22;;;;;;;14.37;11.53;;;10.10;99.90;;;;;;5007768;28;20246;-86
2020/12/19 11:18:49;;;;;;;16.17;11.27;;;10.10;99.90;;;;;;5009539;28;20195;-90
2020/12/19 11:21:16;;;;;;;13.50;10.43;;;10.10;99.90;;;;;;5010420;28;20227;-89
2020/12/19 11:23:43;;;;;;;13.30;10.53;;;10.10;99.90;;;;;;5009843;28;20515;-90
2020/12/19 11:26:09;;;;;;;13.23;9.87;;;10.10;99.90;;;;;;5008819;28;20202;-87
2020/12/19 11:28:37;;;;;;;14.80;10.23;;;10.20;99.90;;;;;;5009872;28;20187;-80
2020/12/19 11:31:03;;;;;;;12.97;9.73;;;10.20;99.90;;;;;;5009204;28;20203;-89
2020/12/19 11:33:29;;;;;;;12.07;9.20;;;10.20;99.90;;;;;;5009368;28;20206;-89
2020/12/19 11:35:56;;;;;;;15.50;8.83;;;10.20;99.90;;;;;;5009578;28;20206;-89
2020/12/19 11:38:22;;;;;;;14.37;9.10;;;10.30;99.90;;;;;;5009260;28;20257;-87
2020/12/19 11:40:49;;;;;;;11.97;9.20;;;10.20;99.90;;;;;;5009054;28;20223;-83
2020/12/19 11:43:16;;;;;;;12.80;9.43;;;10.20;99.90;;;;;;5008627;28;20254;-84
2020/12/19 11:45:42;;;;;;;11.53;9.07;;;10.20;99.90;;;;;;5009509;28;20204;-90
2020/12/19 11:48:08;;;;;;;14.67;10.07;;;10.20;99.90;;;;;;5008860;28;20619;-81
2020/12/19 11:50:34;;;;;;;13.73;9.77;;;10.20;99.90;;;;;;5008108;28;20199;-92
2020/12/19 11:53:01;;;;;;;13.47;9.40;;;10.20;99.90;;;;;;5008100;28;20219;-81
2020/12/19 11:55:27;;;;;;;13.50;9.47;;;10.20;99.90;;;;;;5007904;28;20203;-88
2020/12/19 11:57:54;;;;;;;11.40;9.43;;;10.20;99.90;;;;;;5008110;28;20199;-81
2020/12/19 12:00:20;;;;;;;14.00;8.70;;;10.20;99.90;;;;;;5007699;28;20204;-88
2020/12/19 12:02:47;;;;;;;13.70;8.80;;;10.20;99.90;;;;;;5007775;28;20230;-81
2020/12/19 12:05:13;;;;;;;12.37;8.37;;;10.10;99.90;;;;;;5007964;28;20210;-82
2020/12/19 12:07:39;;;;;;;12.70;8.57;;;10.10;99.90;;;;;;5006370;28;20900;-80
2020/12/19 12:10:06;;;;;;;10.97;7.37;;;10.20;99.90;;;;;;5006636;28;20218;-79
2020/12/19 12:12:32;;;;;;;9.27;7.23;;;10.20;99.90;;;;;;5007020;28;20231;-81
2020/12/19 12:14:59;;;;;;;9.87;7.00;;;10.20;99.90;;;;;;5007550;28;20203;-81
2020/12/19 12:17:26;;;;;;;10.13;7.70;;;10.20;99.90;;;;;;5008542;28;20328;-80
2020/12/19 12:19:52;;;;;;;10.07;7.03;;;10.30;99.90;;;;;;5013788;28;20199;-81
2020/12/19 12:22:18;;;;;;;10.37;6.97;;;10.30;99.90;;;;;;5012806;28;20231;-81
2020/12/19 12:24:45;;;;;;;11.30;6.30;;;10.40;99.90;;;;;;5011513;28;20283;-86
2020/12/19 12:27:11;;;;;;;8.70;6.20;;;10.40;99.90;;;;;;5006643;28;20926;-82
2020/12/19 12:29:38;;;;;;;10.10;6.07;;;10.50;99.90;;;;;;5005539;28;20214;-84
2020/12/19 12:32:05;;;;;;;8.20;6.17;;;10.50;99.90;;;;;;5006134;28;20199;-80
2020/12/19 12:34:31;;;;;;;8.27;6.07;;;10.50;99.90;;;;;;5007252;28;20211;-84
2020/12/19 12:36:57;;;;;;;8.83;6.27;;;10.50;99.90;;;;;;5006599;28;20207;-84
2020/12/19 12:39:24;;;;;;;10.27;6.53;;;10.50;99.90;;;;;;5004585;28;20200;-85
2020/12/19 12:41:50;;;;;;;6.53;5.00;;;10.60;99.90;;;;;;5003342;28;20251;-84
2020/12/19 12:44:17;;;;;;;7.23;5.10;;;10.60;99.90;;;;;;5009321;28;20499;-80
2020/12/19 12:46:43;;;;;;;7.60;5.07;;;10.70;99.90;;;;;;5015302;28;20207;-87
2020/12/19 12:49:11;;;;;;;7.20;5.40;;;10.60;99.90;;;;;;5011271;28;20207;-86
2020/12/19 12:51:37;;;;;;;9.23;5.70;;;10.60;99.90;;;;;;5008966;28;20203;-87
2020/12/19 12:54:03;;;;;;;6.20;5.10;;;10.60;99.90;;;;;;5006054;28;20215;-80
2020/12/19 12:56:29;;;;;;;6.80;5.17;;;10.60;99.90;;;;;;5007850;28;20607;-80